TAF Text Data
IDs:
Format:
Raw Decoded Include METAR

Data at: 2230 UTC 02 Aug 2021

KEET 022207Z 0222/0318 36006KT P6SM BKN120
  FM030300 00000KT 6SM BR SCT070 BKN080
  FM031000 00000KT P6SM BKN090